createdAt,value
2019-05-30T00:00:28.683Z,19.59
2019-05-30T00:03:02.348Z,19.54
2019-05-30T00:05:34.971Z,19.52
2019-05-30T00:08:07.644Z,19.41
2019-05-30T00:10:40.325Z,19.41
2019-05-30T00:13:12.623Z,19.37
2019-05-30T00:15:45.947Z,19.30
2019-05-30T00:18:17.989Z,19.25
2019-05-30T00:20:50.015Z,19.25
2019-05-30T00:23:22.183Z,19.17
2019-05-30T00:25:55.310Z,19.14
2019-05-30T00:28:27.419Z,19.16
2019-05-30T00:31:00.184Z,19.13
2019-05-30T00:33:32.243Z,19.23
2019-05-30T00:36:04.268Z,19.26
2019-05-30T00:38:36.622Z,19.27
2019-05-30T00:41:10.339Z,19.32
2019-05-30T00:43:43.583Z,19.29
2019-05-30T00:46:17.731Z,19.26
2019-05-30T00:48:50.207Z,19.21
2019-05-30T00:51:23.201Z,19.32
2019-05-30T00:53:54.953Z,19.31
2019-05-30T00:56:27.430Z,19.35
2019-05-30T00:59:00.586Z,19.34
2019-05-30T01:01:32.914Z,19.30
2019-05-30T01:04:05.429Z,19.35
2019-05-30T01:06:37.219Z,19.36
2019-05-30T01:09:10.211Z,19.30
2019-05-30T01:11:41.899Z,19.31
2019-05-30T01:14:14.645Z,19.32
2019-05-30T01:16:47.423Z,19.26
2019-05-30T01:19:21.233Z,19.20
2019-05-30T01:21:54.011Z,19.11
2019-05-30T01:24:26.487Z,19.09
2019-05-30T01:26:59.262Z,19.08
2019-05-30T01:29:31.541Z,19.11
2019-05-30T01:32:05.600Z,19.08
2019-05-30T01:34:39.047Z,19.15
2019-05-30T01:37:11.931Z,19.14
2019-05-30T01:39:43.500Z,19.16
2019-05-30T01:42:15.459Z,19.15
2019-05-30T01:44:47.424Z,19.13
2019-05-30T01:47:19.377Z,19.13
2019-05-30T01:49:51.847Z,19.15
2019-05-30T01:52:23.504Z,19.11
2019-05-30T01:54:55.254Z,19.01
2019-05-30T01:57:27.630Z,19.01
2019-05-30T02:00:00.697Z,18.95
2019-05-30T02:02:32.169Z,18.90
2019-05-30T02:05:07.568Z,18.94
2019-05-30T02:07:39.482Z,19.00
2019-05-30T02:10:11.752Z,18.99
2019-05-30T02:12:43.919Z,19.04
2019-05-30T02:15:17.070Z,19.04
2019-05-30T02:17:49.171Z,19.07
2019-05-30T02:20:23.403Z,19.08
2019-05-30T02:22:54.977Z,19.12
2019-05-30T02:25:26.700Z,19.13
2019-05-30T02:27:58.560Z,19.15
2019-05-30T02:30:30.445Z,19.16
2019-05-30T02:33:02.917Z,19.17
2019-05-30T02:35:34.854Z,19.25
2019-05-30T02:38:07.359Z,19.19
2019-05-30T02:40:39.805Z,19.25
2019-05-30T02:43:13.399Z,19.25
2019-05-30T02:45:48.851Z,19.41
2019-05-30T02:48:20.511Z,19.49
2019-05-30T02:50:52.839Z,19.60
2019-05-30T02:53:25.449Z,19.52
2019-05-30T02:55:58.130Z,19.72
2019-05-30T02:58:30.608Z,19.96
2019-05-30T03:01:04.499Z,20.01
2019-05-30T03:03:37.607Z,20.18
2019-05-30T03:06:11.836Z,20.32
2019-05-30T03:08:43.994Z,20.66
2019-05-30T03:11:15.872Z,22.02
2019-05-30T03:13:47.829Z,22.84
2019-05-30T03:16:19.683Z,23.74
2019-05-30T03:18:53.372Z,23.99
2019-05-30T03:21:26.666Z,24.15
2019-05-30T03:23:59.345Z,24.13
2019-05-30T03:26:33.664Z,23.71
2019-05-30T03:29:07.133Z,22.37
2019-05-30T03:31:42.024Z,21.63
2019-05-30T03:34:26.205Z,22.09
2019-05-30T03:36:47.371Z,23.43
2019-05-30T03:39:19.107Z,24.97
2019-05-30T03:41:50.869Z,25.00
2019-05-30T03:44:22.944Z,24.96
2019-05-30T03:46:58.190Z,26.39
2019-05-30T03:49:33.305Z,26.91
2019-05-30T03:52:10.614Z,27.21
2019-05-30T03:54:44.246Z,26.69
2019-05-30T03:57:21.788Z,26.31
2019-05-30T04:00:03.042Z,27.22
2019-05-30T04:02:57.082Z,27.45
2019-05-30T04:05:22.253Z,28.03
2019-05-30T04:07:58.622Z,27.12
2019-05-30T04:10:33.256Z,28.19
2019-05-30T04:13:17.766Z,29.13
2019-05-30T04:15:49.254Z,28.01
2019-05-30T04:18:21.820Z,28.04
2019-05-30T04:20:54.822Z,28.14
2019-05-30T04:23:28.215Z,26.88
2019-05-30T04:26:01.819Z,27.36
2019-05-30T04:28:35.310Z,28.76
2019-05-30T04:31:08.115Z,29.03
2019-05-30T04:33:39.859Z,28.62
2019-05-30T04:36:12.489Z,29.19
2019-05-30T04:38:44.397Z,29.86
2019-05-30T04:41:19.087Z,28.04
2019-05-30T04:43:50.465Z,29.33
2019-05-30T04:46:22.191Z,28.35
2019-05-30T04:48:54.109Z,27.87
2019-05-30T04:51:26.049Z,27.83
2019-05-30T04:53:59.150Z,29.00
2019-05-30T04:56:32.429Z,29.36
2019-05-30T04:59:08.016Z,28.75
2019-05-30T05:01:41.168Z,28.73
2019-05-30T05:04:17.744Z,29.12
2019-05-30T05:06:50.320Z,28.73
2019-05-30T05:09:26.501Z,27.96
2019-05-30T05:11:59.898Z,29.29
2019-05-30T05:14:33.995Z,29.99
2019-05-30T05:17:06.293Z,31.17
2019-05-30T05:19:40.315Z,29.48
2019-05-30T05:22:12.856Z,29.40
2019-05-30T05:24:51.459Z,30.35
2019-05-30T05:27:24.163Z,30.01
2019-05-30T05:29:56.629Z,30.71
2019-05-30T05:32:29.489Z,30.85
2019-05-30T05:35:01.978Z,31.09
2019-05-30T05:37:34.447Z,30.84
2019-05-30T05:40:09.482Z,31.31
2019-05-30T05:42:41.559Z,30.48
2019-05-30T05:45:14.569Z,31.76
2019-05-30T05:47:46.702Z,31.88
2019-05-30T05:50:20.487Z,31.83
2019-05-30T05:52:52.678Z,30.32
2019-05-30T05:55:25.144Z,30.85
2019-05-30T05:57:57.243Z,31.42
2019-05-30T06:00:30.221Z,30.16
2019-05-30T06:03:02.374Z,31.20
2019-05-30T06:05:34.456Z,30.51
2019-05-30T06:08:07.527Z,31.09
2019-05-30T06:10:40.004Z,30.69
2019-05-30T06:13:14.420Z,29.31
2019-05-30T06:15:46.644Z,30.14
2019-05-30T06:18:20.148Z,31.05
2019-05-30T06:20:52.357Z,30.83
2019-05-30T06:23:25.712Z,29.85
2019-05-30T06:25:59.658Z,29.93
2019-05-30T06:28:32.129Z,30.95
2019-05-30T06:31:04.506Z,31.58
2019-05-30T06:33:37.909Z,30.13
2019-05-30T06:36:10.374Z,30.48
2019-05-30T06:38:44.484Z,31.78
2019-05-30T06:41:16.762Z,32.02
2019-05-30T06:43:54.577Z,32.25
2019-05-30T06:46:28.392Z,31.90
2019-05-30T06:49:00.749Z,30.76
2019-05-30T06:51:33.351Z,30.56
2019-05-30T06:54:05.593Z,30.14
2019-05-30T06:56:37.963Z,30.79
2019-05-30T06:59:11.346Z,30.62
2019-05-30T07:01:43.415Z,30.79
2019-05-30T07:04:16.215Z,30.63
2019-05-30T07:06:49.428Z,29.76
2019-05-30T07:09:20.879Z,29.94
2019-05-30T07:11:52.593Z,28.80
2019-05-30T07:14:25.245Z,28.70
2019-05-30T07:16:57.032Z,29.43
2019-05-30T07:19:29.540Z,29.54
2019-05-30T07:22:01.475Z,29.88
2019-05-30T07:24:33.911Z,29.41
2019-05-30T07:27:05.502Z,29.56
2019-05-30T07:29:38.790Z,29.40
2019-05-30T07:32:13.309Z,29.89
2019-05-30T07:34:46.039Z,30.03
2019-05-30T07:37:17.035Z,29.57
2019-05-30T07:39:50.534Z,29.17
2019-05-30T07:42:22.191Z,29.19
2019-05-30T07:44:55.996Z,29.35
2019-05-30T07:47:28.159Z,29.92
2019-05-30T07:50:00.140Z,29.99
2019-05-30T07:52:33.120Z,29.88
2019-05-30T07:55:09.042Z,29.50
2019-05-30T07:57:41.631Z,29.77
2019-05-30T08:00:15.761Z,29.19
2019-05-30T08:02:48.133Z,29.54
2019-05-30T08:05:24.609Z,29.52
2019-05-30T08:07:57.069Z,29.47
2019-05-30T08:10:32.051Z,29.57
2019-05-30T08:13:03.845Z,29.34
2019-05-30T08:15:42.952Z,29.75
2019-05-30T08:18:10.145Z,29.76
2019-05-30T08:20:42.105Z,29.52
2019-05-30T08:23:14.276Z,29.63
2019-05-30T08:25:46.249Z,29.49
2019-05-30T08:28:17.998Z,29.64
2019-05-30T08:30:51.298Z,29.67
2019-05-30T08:33:22.844Z,29.85
2019-05-30T08:35:54.706Z,29.72
2019-05-30T08:38:26.337Z,29.74
2019-05-30T08:40:58.223Z,29.89
2019-05-30T08:43:31.222Z,29.68
2019-05-30T08:46:02.862Z,29.94
2019-05-30T08:48:36.147Z,29.88
2019-05-30T08:51:07.809Z,29.64
2019-05-30T08:53:40.675Z,29.39
2019-05-30T08:56:12.895Z,29.32
2019-05-30T08:58:44.723Z,29.41
2019-05-30T09:01:16.780Z,29.57
2019-05-30T09:03:48.539Z,29.57
2019-05-30T09:06:20.508Z,30.05
2019-05-30T09:08:52.363Z,30.42
2019-05-30T09:11:25.123Z,30.63
2019-05-30T09:13:57.517Z,30.73
2019-05-30T09:16:29.972Z,30.74
2019-05-30T09:19:02.161Z,30.98
2019-05-30T09:21:34.635Z,30.47
2019-05-30T09:24:06.633Z,30.13
2019-05-30T09:26:38.988Z,29.73
2019-05-30T09:29:11.339Z,29.17
2019-05-30T09:31:44.478Z,29.68
2019-05-30T09:34:16.239Z,29.94
2019-05-30T09:36:49.891Z,30.45
2019-05-30T09:39:22.063Z,30.80
2019-05-30T09:41:54.440Z,31.08
2019-05-30T09:44:26.905Z,30.97
2019-05-30T09:46:59.271Z,30.80
2019-05-30T09:49:32.071Z,29.90
2019-05-30T09:52:05.362Z,29.68
2019-05-30T09:54:36.799Z,29.89
2019-05-30T09:57:09.277Z,29.95
2019-05-30T09:59:41.802Z,29.91
2019-05-30T10:02:14.942Z,29.91
2019-05-30T10:04:48.952Z,29.62
2019-05-30T10:07:22.248Z,29.86
2019-05-30T10:09:54.619Z,30.48
2019-05-30T10:12:27.097Z,30.32
2019-05-30T10:14:58.855Z,30.58
2019-05-30T10:17:32.538Z,30.65
2019-05-30T10:20:07.471Z,30.79
2019-05-30T10:22:39.453Z,30.73
2019-05-30T10:25:12.652Z,30.50
2019-05-30T10:27:46.250Z,30.24
2019-05-30T10:30:19.572Z,30.25
2019-05-30T10:32:52.086Z,30.24
2019-05-30T10:35:25.098Z,30.47
2019-05-30T10:37:57.583Z,30.69
2019-05-30T10:40:32.048Z,30.45
2019-05-30T10:43:03.590Z,30.54
2019-05-30T10:45:38.502Z,30.40
2019-05-30T10:48:08.806Z,30.21
2019-05-30T10:50:41.178Z,29.89
2019-05-30T10:53:14.009Z,29.67
2019-05-30T10:55:46.949Z,29.78
2019-05-30T10:58:19.520Z,30.22
2019-05-30T11:00:57.816Z,30.61
2019-05-30T11:03:30.148Z,31.14
2019-05-30T11:06:20.195Z,31.03
2019-05-30T11:08:54.798Z,30.61
2019-05-30T11:11:28.993Z,30.67
2019-05-30T11:14:00.848Z,30.45
2019-05-30T11:16:32.897Z,30.49
2019-05-30T11:19:07.661Z,29.85
2019-05-30T11:21:41.659Z,29.21
2019-05-30T11:24:15.668Z,29.39
2019-05-30T11:26:48.762Z,29.82
2019-05-30T11:29:21.431Z,30.29
2019-05-30T11:31:52.978Z,30.79
2019-05-30T11:34:26.104Z,31.15
2019-05-30T11:36:59.350Z,30.90
2019-05-30T11:39:31.888Z,30.30
2019-05-30T11:42:03.697Z,30.04
2019-05-30T11:44:35.831Z,30.17
2019-05-30T11:47:09.097Z,30.30
2019-05-30T11:49:41.165Z,30.13
2019-05-30T11:52:14.672Z,29.84
2019-05-30T11:54:46.157Z,29.28
2019-05-30T11:57:17.561Z,29.36
2019-05-30T11:59:50.098Z,29.55
2019-05-30T12:02:21.638Z,29.66
2019-05-30T12:04:55.256Z,29.94
2019-05-30T12:07:35.753Z,29.81
2019-05-30T12:10:01.060Z,29.72
2019-05-30T12:12:32.972Z,29.99
2019-05-30T12:15:09.797Z,29.57
2019-05-30T12:17:41.260Z,29.48
2019-05-30T12:20:15.924Z,29.43
2019-05-30T12:22:51.892Z,30.07
2019-05-30T12:25:23.892Z,30.21
2019-05-30T12:27:56.110Z,30.57
2019-05-30T12:30:32.420Z,30.42
2019-05-30T12:33:04.607Z,29.37
2019-05-30T12:35:37.776Z,28.80
2019-05-30T12:38:09.351Z,28.59
2019-05-30T12:40:41.106Z,28.65
2019-05-30T12:43:12.964Z,28.27
2019-05-30T12:45:45.540Z,28.67
2019-05-30T12:48:18.329Z,28.47
2019-05-30T12:50:53.079Z,28.38
2019-05-30T12:53:24.821Z,28.75
2019-05-30T12:55:56.875Z,29.29
2019-05-30T12:58:28.505Z,29.53
2019-05-30T13:01:00.856Z,29.36
2019-05-30T13:03:32.668Z,29.41
2019-05-30T13:06:05.240Z,29.55
2019-05-30T13:08:37.607Z,29.29
2019-05-30T13:11:09.877Z,29.31
2019-05-30T13:13:43.289Z,29.60
2019-05-30T13:16:15.043Z,29.20
2019-05-30T13:18:46.942Z,29.05
2019-05-30T13:21:18.646Z,28.64
2019-05-30T13:23:50.637Z,28.89
2019-05-30T13:26:23.085Z,28.99
2019-05-30T13:28:56.108Z,29.73
2019-05-30T13:31:27.729Z,29.86
2019-05-30T13:34:00.941Z,29.48
2019-05-30T13:36:32.572Z,28.98
2019-05-30T13:39:05.333Z,28.97
2019-05-30T13:41:37.019Z,29.53
2019-05-30T13:44:09.815Z,29.67
2019-05-30T13:46:42.024Z,29.71
2019-05-30T13:49:15.258Z,29.83
2019-05-30T13:51:51.546Z,30.07
2019-05-30T13:54:23.929Z,29.24
2019-05-30T13:56:59.430Z,28.75
2019-05-30T13:59:33.009Z,28.35
2019-05-30T14:02:06.035Z,28.05
2019-05-30T14:04:37.560Z,27.65
2019-05-30T14:07:10.511Z,27.70
2019-05-30T14:09:42.382Z,27.56
2019-05-30T14:12:14.770Z,27.72
2019-05-30T14:14:47.055Z,27.30
2019-05-30T14:17:20.322Z,27.68
2019-05-30T14:19:51.830Z,27.49
2019-05-30T14:22:23.301Z,27.31
2019-05-30T14:24:55.050Z,27.20
2019-05-30T14:27:26.481Z,27.10
2019-05-30T14:29:59.704Z,27.12
2019-05-30T14:32:31.570Z,27.14
2019-05-30T14:35:04.104Z,26.94
2019-05-30T14:37:35.468Z,27.00
2019-05-30T14:40:11.376Z,26.87
2019-05-30T14:42:42.920Z,27.00
2019-05-30T14:45:19.318Z,26.90
2019-05-30T14:47:54.329Z,27.01
2019-05-30T14:50:26.272Z,27.21
2019-05-30T14:52:57.659Z,27.05
2019-05-30T14:55:29.970Z,26.89
2019-05-30T14:58:03.185Z,27.09
2019-05-30T15:00:34.622Z,27.05
2019-05-30T15:03:12.424Z,27.12
2019-05-30T15:05:41.550Z,27.15
2019-05-30T15:08:15.302Z,27.01
2019-05-30T15:10:46.705Z,27.25
2019-05-30T15:13:18.241Z,27.05
2019-05-30T15:15:49.843Z,27.30
2019-05-30T15:18:21.277Z,27.27
2019-05-30T15:20:52.828Z,27.08
2019-05-30T15:23:24.269Z,27.07
2019-05-30T15:25:55.742Z,27.20
2019-05-30T15:28:28.687Z,27.38
2019-05-30T15:31:00.961Z,27.44
2019-05-30T15:33:34.791Z,27.42
2019-05-30T15:36:07.051Z,27.29
2019-05-30T15:38:39.663Z,27.35
2019-05-30T15:41:13.219Z,27.38
2019-05-30T15:43:44.830Z,27.22
2019-05-30T15:46:16.529Z,27.19
2019-05-30T15:48:53.556Z,27.08
2019-05-30T15:51:24.983Z,27.07
2019-05-30T15:53:58.139Z,27.02
2019-05-30T15:56:31.136Z,27.31
2019-05-30T15:59:02.597Z,27.38
2019-05-30T16:01:36.067Z,27.54
2019-05-30T16:04:08.635Z,27.56
2019-05-30T16:06:44.086Z,27.60
2019-05-30T16:09:16.764Z,27.58
2019-05-30T16:11:48.929Z,27.47
2019-05-30T16:14:21.584Z,27.37
2019-05-30T16:16:53.176Z,27.14
2019-05-30T16:19:26.577Z,27.02
2019-05-30T16:21:58.413Z,26.78
2019-05-30T16:24:29.941Z,26.58
2019-05-30T16:27:01.583Z,26.45
2019-05-30T16:29:37.029Z,26.32
2019-05-30T16:32:08.659Z,26.15
2019-05-30T16:34:40.094Z,25.93
2019-05-30T16:37:11.789Z,25.78
2019-05-30T16:39:45.488Z,25.67
2019-05-30T16:42:20.085Z,25.60
2019-05-30T16:44:54.747Z,25.49
2019-05-30T16:47:26.685Z,25.40
2019-05-30T16:49:59.596Z,25.27
2019-05-30T16:52:32.167Z,25.15
2019-05-30T16:55:06.238Z,24.99
2019-05-30T16:57:38.346Z,24.81
2019-05-30T17:00:12.500Z,24.65
2019-05-30T17:02:44.319Z,24.53
2019-05-30T17:05:16.692Z,24.41
2019-05-30T17:07:48.868Z,24.24
2019-05-30T17:10:26.479Z,24.13
2019-05-30T17:12:54.116Z,24.01
2019-05-30T17:15:27.912Z,23.96
2019-05-30T17:18:00.805Z,23.86
2019-05-30T17:20:32.978Z,23.77
2019-05-30T17:23:04.951Z,23.67
2019-05-30T17:25:36.794Z,23.61
2019-05-30T17:28:08.971Z,23.53
2019-05-30T17:30:41.339Z,23.38
2019-05-30T17:33:13.198Z,23.31
2019-05-30T17:35:45.675Z,23.26
2019-05-30T17:38:20.417Z,23.13
2019-05-30T17:40:52.009Z,23.13
2019-05-30T17:43:24.942Z,23.09
2019-05-30T17:45:56.693Z,23.01
2019-05-30T17:48:29.665Z,22.94
2019-05-30T17:51:01.646Z,22.97
2019-05-30T17:53:33.516Z,22.95
2019-05-30T17:56:05.465Z,22.89
2019-05-30T17:58:37.329Z,22.83
2019-05-30T18:01:09.293Z,22.78
2019-05-30T18:03:41.864Z,22.76
2019-05-30T18:06:13.621Z,22.67
2019-05-30T18:08:45.525Z,22.66
2019-05-30T18:11:17.341Z,22.61
2019-05-30T18:13:49.826Z,22.58
2019-05-30T18:16:23.052Z,22.59
2019-05-30T18:18:54.839Z,22.56
2019-05-30T18:21:27.472Z,22.54
2019-05-30T18:23:59.248Z,22.49
2019-05-30T18:26:31.896Z,22.36
2019-05-30T18:29:03.544Z,22.25
2019-05-30T18:31:35.298Z,22.16
2019-05-30T18:34:07.872Z,22.14
2019-05-30T18:36:39.842Z,22.13
2019-05-30T18:39:11.667Z,22.15
2019-05-30T18:41:43.660Z,22.15
2019-05-30T18:44:16.547Z,22.16
2019-05-30T18:46:49.226Z,22.20
2019-05-30T18:49:24.961Z,22.21
2019-05-30T18:51:56.836Z,22.25
2019-05-30T18:54:30.657Z,22.27
2019-05-30T18:57:02.607Z,22.27
2019-05-30T18:59:37.419Z,22.28
2019-05-30T19:02:09.197Z,22.37
2019-05-30T19:04:40.849Z,22.64
2019-05-30T19:07:14.351Z,22.82
2019-05-30T19:09:46.814Z,22.87
2019-05-30T19:12:28.051Z,22.80
2019-05-30T19:15:03.868Z,22.64
2019-05-30T19:17:36.636Z,22.58
2019-05-30T19:20:09.614Z,22.55
2019-05-30T19:22:43.434Z,22.50
2019-05-30T19:25:15.280Z,22.39
2019-05-30T19:27:47.052Z,22.29
2019-05-30T19:30:19.178Z,22.29
2019-05-30T19:32:50.767Z,22.22
2019-05-30T19:35:24.466Z,22.16
2019-05-30T19:37:56.855Z,22.10
2019-05-30T19:40:29.493Z,22.07
2019-05-30T19:43:02.721Z,22.09
2019-05-30T19:45:36.515Z,22.07
2019-05-30T19:48:09.534Z,22.10
2019-05-30T19:50:41.746Z,22.16
2019-05-30T19:53:17.829Z,22.20
2019-05-30T19:55:51.530Z,22.21
2019-05-30T19:58:23.563Z,22.31
2019-05-30T20:00:58.881Z,22.48
2019-05-30T20:03:39.510Z,22.55
2019-05-30T20:06:05.024Z,22.61
2019-05-30T20:08:53.325Z,22.56
2019-05-30T20:11:10.705Z,22.53
2019-05-30T20:13:42.989Z,22.50
2019-05-30T20:16:15.372Z,22.48
2019-05-30T20:18:48.003Z,22.48
2019-05-30T20:21:19.964Z,22.39
2019-05-30T20:23:56.458Z,22.36
2019-05-30T20:26:27.531Z,22.29
2019-05-30T20:29:00.873Z,22.21
2019-05-30T20:31:33.562Z,22.15
2019-05-30T20:34:05.534Z,22.07
2019-05-30T20:36:38.491Z,22.00
2019-05-30T20:39:12.306Z,21.89
2019-05-30T20:41:47.154Z,21.79
2019-05-30T20:44:19.535Z,21.68
2019-05-30T20:46:52.966Z,21.66
2019-05-30T20:49:24.555Z,21.66
2019-05-30T20:51:57.961Z,21.57
2019-05-30T20:54:29.711Z,21.56
2019-05-30T20:57:02.799Z,21.51
2019-05-30T20:59:34.967Z,21.47
2019-05-30T21:02:07.961Z,21.40
2019-05-30T21:04:40.935Z,21.41
2019-05-30T21:07:12.908Z,21.38
2019-05-30T21:09:46.223Z,21.39
2019-05-30T21:12:36.402Z,21.44
2019-05-30T21:14:54.680Z,21.38
2019-05-30T21:17:28.846Z,21.35
2019-05-30T21:20:03.269Z,21.35
2019-05-30T21:22:36.495Z,21.40
2019-05-30T21:25:08.726Z,21.38
2019-05-30T21:27:40.920Z,21.39
2019-05-30T21:30:13.722Z,21.43
2019-05-30T21:32:48.077Z,21.51
2019-05-30T21:35:20.248Z,21.61
2019-05-30T21:37:55.709Z,21.77
2019-05-30T21:40:27.978Z,21.91
2019-05-30T21:43:06.380Z,22.00
2019-05-30T21:45:33.542Z,21.93
2019-05-30T21:48:06.423Z,21.84
2019-05-30T21:50:39.280Z,21.83
2019-05-30T21:53:12.909Z,21.85
2019-05-30T21:55:46.049Z,21.86
2019-05-30T21:58:17.813Z,21.81
2019-05-30T22:00:58.666Z,21.79
2019-05-30T22:03:33.154Z,21.68
2019-05-30T22:06:05.015Z,21.58
2019-05-30T22:08:36.570Z,21.64
2019-05-30T22:11:08.532Z,21.82
2019-05-30T22:13:41.474Z,21.88
2019-05-30T22:16:13.167Z,21.92
2019-05-30T22:18:48.072Z,21.96
2019-05-30T22:21:20.368Z,22.02
2019-05-30T22:23:52.588Z,22.03
2019-05-30T22:26:26.057Z,22.04
2019-05-30T22:28:58.417Z,21.93
2019-05-30T22:31:31.190Z,21.86
2019-05-30T22:34:04.381Z,21.82
2019-05-30T22:36:37.171Z,21.82
2019-05-30T22:39:10.765Z,21.80
2019-05-30T22:41:43.832Z,21.62
2019-05-30T22:44:15.710Z,21.52
2019-05-30T22:46:48.106Z,21.48
2019-05-30T22:49:20.868Z,21.44
2019-05-30T22:51:53.209Z,21.39
2019-05-30T22:54:25.821Z,21.33
2019-05-30T22:57:01.078Z,21.47
2019-05-30T22:59:31.278Z,21.53
2019-05-30T23:02:03.137Z,21.62
2019-05-30T23:04:35.840Z,21.58
2019-05-30T23:07:07.986Z,21.51
2019-05-30T23:09:40.362Z,21.49
2019-05-30T23:12:12.423Z,21.53
2019-05-30T23:14:45.910Z,21.82
2019-05-30T23:17:18.915Z,22.06
2019-05-30T23:19:51.680Z,21.96
2019-05-30T23:22:25.903Z,21.86
2019-05-30T23:24:57.977Z,21.95
2019-05-30T23:27:30.340Z,21.89
2019-05-30T23:30:02.411Z,21.85
2019-05-30T23:32:35.290Z,21.86
2019-05-30T23:35:08.563Z,21.81
2019-05-30T23:37:40.650Z,21.97
2019-05-30T23:40:13.005Z,21.86
2019-05-30T23:42:44.694Z,21.68
2019-05-30T23:45:19.213Z,21.55
2019-05-30T23:47:51.981Z,21.62
2019-05-30T23:50:23.717Z,21.77
2019-05-30T23:52:56.280Z,21.80
2019-05-30T23:55:28.183Z,21.78
2019-05-30T23:58:01.472Z,21.91
